UTSSUTDD

Guest
Details From UTSS - SAMARKAND
To UTDD - DUSHANBE
Flight Number -
Tags generated
Created
Modified
Stats Distance 110 nm / 205 km
Max Altitude 11,100 ft / 3,383 m
Waypoints 3
Social Downloads 2
Likes 0
Share VATSIM

Download

Looking for another format? Having issues loading an existing format? Contact us
Advertisement - Login to hide

Notes

Basic altitude profile: - Ascent Rate: 2500ft/min - Ascent Speed: 250kts - Cruise Altitude: 35000ft - Cruise Speed: 420kts - Descent Rate: 1500ft/min - Descent Speed: 250kts Options: - Use NATs: yes - Use PACOTS: yes - Use low airways: yes - Use high airways: yes

Route

UTSS BUTRA UTDD

ID Type Via Altitude Latitude Longitude Leg Dist Tot Dist Heading (true) Name
O UTSS APT - 0 ft / 0 m 39.70055˚ 66.98383˚ - 0 nm - SAMARKAND
BUTRA FIX - 11,100 ft / 3,383 m 39.35000˚ 67.48333˚ 31 nm 31 nm 132° / 132° -
O UTDD APT - 0 ft / 0 m 38.54349˚ 68.82464˚ 79 nm 110 nm 127° / 128° DUSHANBE

Altitude Profile

Advertisement - Login to hide

UTSS

Details ICAO UTSS (SKD)
Name SAMARKAND
Region Tajikistan, Turkmenistan and Uzbekistan
Timezone Asia/Samarkand (UTC+5.0)
Stats Elevation 2,224 ft / 678 m (AMSL)
Location 39.700547° 66.983829°
Runways 1
Magnetic Variation 5.018° E

METAR

UTSS 160900Z 34002KT 9999 NSC 08/M08 Q1026 R09/70D NOSIG

Decode

TAF

TAF UTSS 160500Z 1606/1706 30010KT 7000 NSC BECMG 1612/1614 12010KT 5000 BR

Decode

Departure Runways

ID Width Length Bearing (true) Bearing (mag) Surface Threshold Offset Overrun Length
09 161 ft / 49 m 10,189 ft / 3,106 m 95.70° 90.68° Asphalt 0 ft / 0 m 200 ft / 61 m
27 161 ft / 49 m 10,189 ft / 3,106 m 275.72° 270.70° Asphalt 0 ft / 0 m 200 ft / 61 m

UTDD

Details ICAO UTDD (DYU)
Name DUSHANBE
Region Tajikistan, Turkmenistan and Uzbekistan
Timezone Asia/Dushanbe (UTC+5.0)
Stats Elevation 2,575 ft / 785 m (AMSL)
Location 38.543486° 68.824637°
Runways 1
Magnetic Variation 4.445° E

METAR

UTDD 160930Z 00000MPS 3300 FU BKN071 OVC087 08/M04 Q1029 R09/D NOSIG RMK QFE702/0936

Decode

TAF

TAF TAF UTDD 160900Z 1610/1622 VRB02MPS 2100 BR FU FEW020 SCT050 BKN080 TEMPO 1613/1622 1500 BR FU

Decode

Destination Runways

ID Width Length Bearing (true) Bearing (mag) Surface Threshold Offset Overrun Length
09 147 ft / 45 m 10,157 ft / 3,096 m 90.06° 85.61° Asphalt 0 ft / 0 m 0 ft / 0 m
27 147 ft / 45 m 10,157 ft / 3,096 m 270.08° 265.63° Asphalt 1,335 ft / 407 m 0 ft / 0 m

Popular Alternatives